Adams, NE

7:33 AM CDT on October 02, 2014 (GMT -0500)
Nebraska City Municipal | Change Station
CLOSE
Current Station
Airport
Location: Nebraska City,
Elevation: 1161 ft
Nearby Weather Stations

Elev 1161 ft 40.61 °N, 95.86 °W | Updated 18 minutes ago

Overcast
Overcast
64 °F
Feels Like 64 °F
N
9
Wind Variable Wind from NE

Today
High -- | Low -- °F
--% Chance of Precip.
Yesterday
High -- | Low -- °F
Precip. -- in
7:23 AM 7:06 PM
First Quarter, 58% visible
Pressure 29.78 in
Visibility 2.5 miles
Clouds Mostly Cloudy 200 ft
Overcast 700 ft
Dew Point 64 °F
Humidity 100%
Rainfall 0.40 in
Snow Depth Not available.
UV 0 out of 12
Pollen .50 out of 12
Air Quality Not available.
Flu Activity Not available.
METAR KAFK 021215Z AUTO 05008KT 2 1/2SM RA BKN002 OVC007 18/18 A2978 RMK AO2 LTG DSNT E AND SE P0002 T01770177

More Conditions Fewer Conditions

Pressure 29.78 in
Visibility 2.5 miles
Clouds Mostly Cloudy 200 ft
Overcast 700 ft
Dew Point 64 °F
Humidity 100%
Rainfall 0.40 in
Snow Depth Not available.
UV 0 out of 12
Pollen .50 out of 12
Air Quality Not available.
Flu Activity Not available.
METAR KAFK 021215Z AUTO 05008KT 2 1/2SM RA BKN002 OVC007 18/18 A2978 RMK AO2 LTG DSNT E AND SE P0002 T01770177

More Conditions Fewer Conditions

10-Day Weather Forecast

Almanac

Astronomy

Oct. 02, 2014 Rise Set
Actual Time 7:23 AM CDT 7:06 PM CDT
Civil Twilight 6:56 AM CDT 7:33 PM CDT
Nautical Twilight 6:24 AM CDT 8:05 PM CDT
Astronomical Twilight 5:52 AM CDT 8:37 PM CDT
Moon 3:14 PM CDT 12:40 AM CDT
Length of Visible Light 12h 37m
Length of Day
11h 42m
Tomorrow will be 2m 38s shorter.
First Quarter, 58% of the Moon is Illuminated
Today
First Quarter
Oct 8
Full
Oct 15
Last Quarter
Oct 23
New
Oct 30
First Quarter

Today's Extremes

State Highs State Lows

Community

WunderPhotos

Upload Photos

1,758,223 photos uploaded!

WunderBlogs® & News

Nearby

Snow Depth

Station Depth Elevation
No new snow has been reported.

Earthquake Activity

City Distance Mag. Time & Date
No recent earthquake activity has been reported nearby.
Minimum magnitude displayed is 2.5.

Coastal Water Temperatures

Place Temperature
No Stations Reporting

Nearby Weather Stations